Springfield, CO (81073)

3:22 PM MDT on August 27, 2014 (GMT -0600)
NonFedAWOS SPRINGFIELD CO US SUPERAWOS | Change Station
CLOSE
Current Station
Personal Weather Station
Location: Springfield, CO
Elevation: 4390 ft
Nearby Weather Stations

Elev 4390 ft 37.46 °N, 102.62 °W | Updated 27 minutes ago

Partly Cloudy
Partly Cloudy
82 °F
Feels Like 84 °F
N
12
Wind Variable Wind from SSE
Gusts 18.0 mph

Today
High -- | Low -- °F
--% Chance of Precip.
Yesterday
High -- | Low -- °F
Precip. -- in
6:16 AM 7:26 PM
Waxing Crescent, 5% visible
Pressure 29.86 in
Visibility 10.0 miles
Clouds Few 12000 ft
Heat Index 84 °F
Dew Point 66 °F
Humidity 58%
Rainfall -999.00 in
Snow Depth Not available.
UV 8 out of 12
Pollen 9.50 out of 12
Air Quality Not available.
Flu Activity Not available.
METAR KLAA 272053Z AUTO 22007KT 10SM FEW120 30/14 A3001 RMK AO2 SLP111 T03000144 56020

More Conditions Fewer Conditions

Pressure 29.86 in
Visibility 10.0 miles
Clouds Few 12000 ft
Heat Index 84 °F
Dew Point 66 °F
Humidity 58%
Rainfall -999.00 in
Snow Depth Not available.
UV 8 out of 12
Pollen 9.50 out of 12
Air Quality Not available.
Flu Activity Not available.
METAR KLAA 272053Z AUTO 22007KT 10SM FEW120 30/14 A3001 RMK AO2 SLP111 T03000144 56020

More Conditions Fewer Conditions

10-Day Weather Forecast

Almanac

Astronomy

Aug. 27, 2014 Rise Set
Actual Time 6:16 AM MDT 7:26 PM MDT
Civil Twilight 5:49 AM MDT 7:53 PM MDT
Nautical Twilight 5:17 AM MDT 8:25 PM MDT
Astronomical Twilight 4:44 AM MDT 8:58 PM MDT
Moon 8:11 AM MDT 8:23 PM MDT
Length of Visible Light 14h 03m
Length of Day
13h 09m
Tomorrow will be 2m 15s shorter.
Waxing Crescent, 5% of the Moon is Illuminated
Today
Waxing Crescent
Sep 2
First Quarter
Sep 8
Full
Sep 15
Last Quarter
Sep 24
New

Today's Extremes

State Highs State Lows

Community

WunderPhotos

Upload Photos

1,747,791 photos uploaded!

Nearby

Snow Depth

Station Depth Elevation
Ute Creek 0 in 10650 ft
Rough And Tumble 0 in 10360 ft
Echo Lake 0 in 10600 ft
Upper San Juan 0 in 10130 ft
Berthoud Summit 0 in 11300 ft

Earthquake Activity

City Distance Mag. Time & Date
No recent earthquake activity has been reported nearby.
Minimum magnitude displayed is 2.5.

Coastal Water Temperatures

Place Temperature
No Stations Reporting

Nearby Weather Stations